Latest Weather Observations for Gannett Cay

IDQ60801

Issued at 11:35 pm EST Thursday 23 October 2014 (issued every 30 minutes, with the page automatically refreshed every 10 minutes)

About weather observations | Map of weather stations | Latest weather observations for QLD | Other Formats
Station Details ID: 200831 Name: GANNET CAY Lat: -21.98 Lon: 152.47 Height: 2.3 m
Data from the previous 72 hours. | See also: Recent months for locations in Queensland
Date/Time
EST
Temp
°C
App
Temp
°C
Dew
Point
Rel
Hum
%
Delta-T
°C
Wind Press
QNH
hPa
Press
MSL
hPa
Rain
since 9 am
mm
Dir
 
Spd
km/h
Gust
km/h
Spd
kts
Gust
kts
23/11:30pm 22.5 - - - - E 22 26 12 14 1019.9 - -
23/11:26pm 22.6 - - - - E 22 24 12 13 1019.9 1020.0 -
23/11:00pm 22.6 - - - - E 22 26 12 14 1020.0 - -
23/10:30pm 22.6 - - - - E 20 26 11 14 1020.0 - -
23/10:26pm 22.7 - - - - E 20 - 11 - - 1020.1 -
23/10:00pm 22.6 - - - - E 22 24 12 13 1019.7 - -
23/09:30pm 22.5 - - - - E 26 30 14 16 1019.7 - -
23/09:26pm 22.6 - - - - E 24 - 13 - - 1019.8 -
23/09:00pm 22.5 - - - - ESE 24 28 13 15 1019.8 - -
23/08:30pm 22.5 - - - - ESE 24 28 13 15 1019.5 - -
23/08:26pm 22.5 - - - - SE 26 - 14 - - 1019.6 -
23/08:00pm 22.4 - - - - ESE 24 30 13 16 1019.2 - -
23/07:30pm 22.5 - - - - ESE 24 28 13 15 1018.8 - -
23/07:26pm 22.5 - - - - ESE 22 - 12 - - 1018.9 -
23/07:00pm 22.5 - - - - ESE 24 28 13 15 1018.6 - -
23/06:30pm 22.4 - - - - ESE 26 30 14 16 1018.3 - -
23/06:26pm 22.4 - - - - ESE 26 - 14 - - 1018.3 -
23/06:00pm 22.5 - - - - ESE 28 33 15 18 1018.1 - -
23/05:30pm 22.6 - - - - ESE 28 33 15 18 1017.9 - -
23/05:26pm 22.7 - - - - ESE 28 - 15 - - 1017.9 -
23/05:00pm 23.1 - - - - ESE 28 33 15 18 1017.6 - -
23/04:30pm 22.9 - - - - SE 30 32 16 17 1017.3 - -
23/04:26pm 22.9 - - - - SE 30 - 16 - - 1017.3 -
23/04:00pm 22.9 - - - - SE 30 35 16 19 1017.0 - -
23/03:30pm 22.9 - - - - SE 30 35 16 19 1017.0 - -
23/03:26pm 22.8 - - - - SE 30 - 16 - - 1017.2 -
23/03:00pm 22.9 - - - - SE 30 35 16 19 1017.1 - -
23/02:30pm 22.8 - - - - ESE 28 33 15 18 1017.2 - -
23/02:26pm 22.9 - - - - ESE 28 - 15 - - 1017.3 -
23/02:00pm 22.8 - - - - SE 30 35 16 19 1017.3 - -
23/01:30pm 22.9 - - - - ESE 30 33 16 18 1017.6 - -
23/01:26pm 22.8 - - - - ESE 30 - 16 - - 1017.7 -
23/01:00pm 22.8 - - - - ESE 28 32 15 17 1017.9 - -
23/12:30pm 22.8 - - - - ESE 28 32 15 17 1018.2 - -
23/12:26pm 22.8 - - - - ESE 28 - 15 - - 1018.3 -
23/12:00pm 22.9 - - - - ESE 30 35 16 19 1018.6 - -
23/11:30am 22.7 - - - - ESE 32 35 17 19 1019.1 - -
23/11:26am 22.7 - - - - ESE 32 - 17 - - 1019.2 -
23/10:30am 22.7 - - - - ESE 32 35 17 19 1019.6 - -
23/10:26am 22.8 - - - - ESE 32 - 17 - - 1019.6 -
23/10:00am 22.7 - - - - SE 32 35 17 19 1019.8 - -
23/09:30am 22.6 - - - - SE 32 35 17 19 1019.9 - -
23/09:26am 22.5 - - - - SE 32 - 17 - - 1020.0 -
23/09:00am 22.7 - - - - SE 32 35 17 19 1019.9 - -
23/08:30am 22.4 - - - - SE 33 39 18 21 1019.9 - -
23/08:26am 22.6 - - - - SE 33 - 18 - - 1020.0 -
23/08:00am 22.5 - - - - SE 35 41 19 22 1019.8 - -
23/07:30am 22.3 - - - - SE 35 41 19 22 1019.5 - -
23/07:26am 22.5 - - - - SE 35 - 19 - - 1019.6 -
23/07:00am 22.3 - - - - SE 37 43 20 23 1019.4 - -
23/06:30am 22.2 - - - - SE 39 44 21 24 1018.9 - -
23/06:26am 22.1 - - - - SE 39 - 21 - - 1019.0 -
23/06:00am 22.1 - - - - SE 37 43 20 23 1018.7 - -
23/05:30am 21.9 - - - - SE 39 43 21 23 1018.4 - -
23/05:26am 21.9 - - - - SE 37 - 20 - - 1018.4 -
23/05:00am 22.0 - - - - SE 39 46 21 25 1018.1 - -
23/04:30am 22.0 - - - - SE 37 41 20 22 1017.9 - -
23/04:26am 21.9 - - - - SE 37 - 20 - - 1018.0 -
23/04:00am 21.9 - - - - SE 35 39 19 21 1017.8 - -
23/03:30am 21.8 - - - - SE 35 41 19 22 1018.0 - -
23/03:26am 21.7 - - - - SE 35 - 19 - - 1018.1 -
23/03:00am 21.8 - - - - SE 35 41 19 22 1018.0 - -
23/02:30am 21.8 - - - - SE 37 43 20 23 1018.3 - -
23/02:26am 21.8 - - - - SE 37 - 20 - - 1018.4 -
23/02:00am 21.8 - - - - SE 35 41 19 22 1018.5 - -
23/01:30am 21.9 - - - - SE 37 41 20 22 1018.9 - -
23/01:26am 21.9 - - - - SE 35 - 19 - - 1019.1 -
23/01:00am 22.0 - - - - SE 35 41 19 22 1019.2 - -
23/12:30am 22.1 - - - - SE 39 44 21 24 1019.6 - -
23/12:26am 22.0 - - - - SE 39 - 21 - - 1019.7 -
23/12:00am 22.2 - - - - ESE 41 46 22 25 1019.9 - -
 
Date/Time
EST
Temp
°C
App
Temp
°C
Dew
Point
Rel
Hum
%
Delta-T
°C
Wind Press
QNH
hPa
Press
MSL
hPa
Rain
since 9 am
mm
Dir
 
Spd
km/h
Gust
km/h
Spd
kts
Gust
kts
22/11:30pm 22.1 - - - - SE 41 48 22 26 1019.9 - -
22/11:26pm 22.0 - - - - SE 41 - 22 - - 1020.0 -
22/11:00pm 22.4 - - - - SE 41 48 22 26 1020.1 - -
22/10:30pm 22.3 - - - - ESE 41 48 22 26 1020.2 - -
22/10:26pm 22.5 - - - - ESE 39 - 21 - - 1020.4 -
22/10:00pm 22.4 - - - - ESE 43 50 23 27 1020.3 - -
22/09:30pm 22.5 - - - - ESE 43 50 23 27 1020.1 - -
22/09:26pm 22.5 - - - - ESE 43 - 23 - - 1020.2 -
22/09:00pm 22.4 - - - - SE 43 52 23 28 1020.1 - -
22/08:30pm 22.4 - - - - ESE 43 50 23 27 1020.0 - -
22/08:26pm 22.5 - - - - ESE 43 - 23 - - 1020.0 -
22/08:00pm 22.6 - - - - SE 44 50 24 27 1019.6 - -
22/07:30pm 22.5 - - - - SE 41 46 22 25 1019.5 - -
22/07:26pm 22.6 - - - - SE 41 - 22 - - 1019.6 -
22/07:00pm 22.5 - - - - SE 41 46 22 25 1019.3 - -
22/06:30pm 22.6 - - - - SE 43 48 23 26 1019.2 - -
22/06:26pm 22.6 - - - - SE 43 - 23 - - 1019.3 -
22/06:00pm 22.6 - - - - SE 43 50 23 27 1019.1 - -
22/05:30pm 22.7 - - - - SE 43 48 23 26 1018.8 - -
22/05:26pm 22.6 - - - - SE 43 - 23 - - 1018.9 -
22/05:00pm 22.7 - - - - SE 41 46 22 25 1018.6 - -
22/04:30pm 22.8 - - - - SE 39 46 21 25 1018.4 - -
22/04:26pm 22.8 - - - - SE 39 - 21 - - 1018.5 -
22/04:00pm 22.7 - - - - SE 41 46 22 25 1018.2 - -
22/03:30pm 22.8 - - - - SE 37 43 20 23 1018.2 - -
22/03:26pm 22.9 - - - - SE 39 - 21 - - 1018.3 -
22/03:00pm 22.7 - - - - SE 37 41 20 22 1018.2 - -
22/02:30pm 22.6 - - - - SE 37 44 20 24 1018.4 - -
22/02:26pm 22.6 - - - - SE 37 - 20 - - 1018.5 -
22/02:00pm 22.7 - - - - SSE 39 46 21 25 1018.5 - -
22/01:30pm 22.7 - - - - SE 41 46 22 25 1018.9 - -
22/01:26pm 22.7 - - - - SSE 41 - 22 - - 1019.0 -
22/01:00pm 22.7 - - - - SSE 43 50 23 27 1019.0 - -
22/12:30pm 22.8 - - - - SSE 41 46 22 25 1019.2 - -
22/12:26pm 22.8 - - - - SSE 41 - 22 - - 1019.3 -
22/12:00pm 22.7 - - - - SSE 43 48 23 26 1019.6 - -
22/11:30am 22.8 - - - - SE 41 48 22 26 1019.9 - -
22/11:26am 22.8 - - - - SE 41 - 22 - - 1020.1 -
22/11:00am 23.0 - - - - SE 41 48 22 26 1020.3 - -
22/10:30am 22.6 - - - - SE 41 46 22 25 1020.6 - -
22/10:26am 22.6 - - - - SE 41 - 22 - - 1020.7 -
22/10:00am 22.6 - - - - ESE 44 50 24 27 1020.6 - -
22/09:30am 22.5 - - - - SE 43 48 23 26 1020.7 - -
22/09:26am 22.4 - - - - SE 43 - 23 - - 1020.8 -
22/09:00am 22.1 - - - - SE 41 54 22 29 1020.8 - -
22/08:30am 22.8 - - - - SE 33 39 18 21 1020.8 - -
22/08:26am 22.8 - - - - ESE 33 - 18 - - 1020.9 -
22/08:00am 22.8 - - - - ESE 33 37 18 20 1020.8 - -
22/07:30am 22.7 - - - - ESE 32 39 17 21 1020.9 - -
22/07:26am 22.5 - - - - ESE 33 - 18 - - 1021.1 -
22/07:00am 22.7 - - - - ESE 35 43 19 23 1020.7 - -
22/06:30am 22.6 - - - - ESE 37 43 20 23 1020.4 - -
22/06:26am 22.5 - - - - E 37 - 20 - - 1020.4 -
22/06:00am 22.4 - - - - ESE 37 43 20 23 1020.0 - -
22/05:30am 22.2 - - - - ESE 39 46 21 25 1019.9 - -
22/05:26am 22.3 - - - - ESE 39 - 21 - - 1019.9 -
22/05:00am 22.1 - - - - E 37 44 20 24 1019.7 - -
22/04:30am 22.2 - - - - E 37 43 20 23 1019.5 - -
22/04:26am 22.2 - - - - E 37 - 20 - - 1019.6 -
22/04:00am 22.2 - - - - E 41 46 22 25 1019.5 - -
22/03:30am 22.1 - - - - E 39 46 21 25 1019.8 - -
22/03:26am 22.1 - - - - E 39 - 21 - - 1019.9 -
22/03:00am 22.1 - - - - ESE 37 43 20 23 1020.1 - -
22/02:30am 22.1 - - - - ESE 39 44 21 24 1020.4 - -
22/02:26am 22.1 - - - - ESE 39 - 21 - - 1020.5 -
22/02:00am 22.1 - - - - ESE 35 43 19 23 1020.4 - -
22/01:30am 22.2 - - - - ESE 39 46 21 25 1020.8 - -
22/01:26am 22.1 - - - - ESE 39 - 21 - - 1020.9 -
22/01:00am 22.1 - - - - ESE 39 46 21 25 1021.1 - -
22/12:30am 22.2 - - - - ESE 44 50 24 27 1021.4 - -
22/12:26am 22.2 - - - - ESE 44 - 24 - - 1021.5 -
22/12:00am 22.3 - - - - ESE 41 48 22 26 1021.8 - -
 
Date/Time
EST
Temp
°C
App
Temp
°C
Dew
Point
Rel
Hum
%
Delta-T
°C
Wind Press
QNH
hPa
Press
MSL
hPa
Rain
since 9 am
mm
Dir
 
Spd
km/h
Gust
km/h
Spd
kts
Gust
kts
21/11:30pm 22.3 - - - - ESE 43 50 23 27 1022.1 - -
21/11:26pm 22.3 - - - - ESE 43 - 23 - - 1022.2 -
21/11:00pm 22.4 - - - - ESE 41 48 22 26 1022.2 - -
21/10:30pm 22.4 - - - - ESE 41 46 22 25 1022.5 - -
21/10:26pm 22.5 - - - - ESE 41 - 22 - - 1022.6 -
21/10:00pm 22.5 - - - - ESE 39 46 21 25 1022.7 - -
21/09:30pm 22.4 - - - - ESE 41 46 22 25 1022.7 - -
21/09:26pm 22.3 - - - - ESE 39 - 21 - - 1022.8 -
21/09:00pm 22.5 - - - - SE 43 50 23 27 1022.6 - -
21/08:30pm 22.4 - - - - ESE 41 48 22 26 1022.5 - -
21/08:26pm 22.4 - - - - ESE 43 - 23 - - 1022.6 -
21/08:00pm 22.4 - - - - SE 43 50 23 27 1022.1 - -
21/07:30pm 22.4 - - - - ESE 44 52 24 28 1021.8 - -
21/07:26pm 22.4 - - - - ESE 44 - 24 - - 1021.9 -
21/07:00pm 22.5 - - - - ESE 44 50 24 27 1021.6 - -
21/06:30pm 22.5 - - - - ESE 44 52 24 28 1021.4 - -
21/06:26pm 22.4 - - - - ESE 44 - 24 - - 1021.3 -
21/06:00pm 22.7 - - - - SE 46 54 25 29 1020.9 - -
21/05:30pm 22.7 - - - - SE 46 52 25 28 1020.7 - -
21/05:26pm 22.7 - - - - ESE 44 - 24 - - 1020.8 -
21/05:00pm 22.7 - - - - SE 44 52 24 28 1020.5 - -
21/04:30pm 23.0 - - - - SE 44 52 24 28 1020.1 - -
21/04:26pm 22.9 - - - - SE 44 - 24 - - 1020.2 -
21/04:00pm 23.0 - - - - SE 43 52 23 28 1020.0 - -
21/03:30pm 23.0 - - - - SE 43 50 23 27 1020.0 - -
21/03:26pm 23.1 - - - - SE 43 - 23 - - 1020.1 -
21/03:00pm 23.1 - - - - SE 44 50 24 27 1020.0 - -
21/02:30pm 23.0 - - - - ESE 41 46 22 25 1020.1 - -
21/02:26pm 23.0 - - - - ESE 39 - 21 - - 1020.2 -
21/02:00pm 23.1 - - - - ESE 39 44 21 24 1020.2 - -
21/01:30pm 23.2 - - - - ESE 35 46 19 25 1020.4 - -
21/01:26pm 23.1 - - - - ESE 33 - 18 - - 1020.5 -
21/01:00pm 21.9 - - - - ESE 24 28 13 15 1020.9 - -
21/12:30pm 23.1 - - - - ESE 32 39 17 21 1021.3 - -
21/12:26pm 22.9 - - - - SE 32 - 17 - - 1021.3 -
21/12:00pm 22.7 - - - - ESE 37 43 20 23 1021.5 - -
21/11:30am 22.8 - - - - ESE 41 50 22 27 1021.8 - -
21/11:26am 22.8 - - - - ESE 43 - 23 - - 1022.0 -
21/11:00am 22.9 - - - - ESE 43 50 23 27 1022.0 - -
21/10:30am 23.5 - - - - ESE 39 44 21 24 1022.3 - -
21/10:26am 23.5 - - - - ESE 39 - 21 - - 1022.4 -
21/10:00am 23.4 - - - - ESE 37 46 20 25 1022.3 - -
21/09:30am 23.3 - - - - E 32 35 17 19 1022.5 - -
21/09:26am 23.2 - - - - E 32 - 17 - - 1022.5 -
21/09:00am 23.1 - - - - E 35 43 19 23 1022.4 - -
21/08:30am 23.2 - - - - E 43 48 23 26 1022.3 - -
21/08:26am 23.1 - - - - E 43 - 23 - - 1022.4 -
21/08:00am 23.1 - - - - E 44 54 24 29 1022.2 - -
21/07:30am 22.9 - - - - E 43 48 23 26 1022.0 - -
21/07:26am 22.9 - - - - E 43 - 23 - - 1022.1 -
21/07:00am 22.8 - - - - E 43 48 23 26 1021.6 - -
21/06:30am 22.6 - - - - E 43 50 23 27 1021.1 - -
21/06:26am 22.7 - - - - E 43 - 23 - - 1021.2 -
21/06:00am 22.5 - - - - E 43 52 23 28 1020.6 - -
21/05:30am 22.5 - - - - E 46 52 25 28 1020.4 - -
21/05:26am 22.4 - - - - E 46 - 25 - - 1020.4 -
21/05:00am 22.4 - - - - E 44 50 24 27 1020.0 - -
21/04:30am 22.5 - - - - E 46 54 25 29 1019.5 - -
21/04:26am 22.5 - - - - E 46 - 25 - - 1019.6 -
21/04:00am 22.6 - - - - E 41 48 22 26 1019.5 - -
21/03:30am 22.6 - - - - E 35 41 19 22 1019.5 - -
21/03:26am 22.5 - - - - E 35 - 19 - - 1019.6 -
21/03:00am 22.6 - - - - ESE 33 41 18 22 1019.7 - -
21/02:30am 22.6 - - - - ESE 39 43 21 23 1019.7 - -
21/02:26am 22.7 - - - - ESE 39 - 21 - - 1019.8 -
21/02:00am 22.6 - - - - ESE 39 44 21 24 1019.9 - -
21/01:30am 22.7 - - - - ESE 41 46 22 25 1020.2 - -
21/01:26am 22.7 - - - - ESE 41 - 22 - - 1020.4 -
21/01:00am 22.6 - - - - ESE 41 48 22 26 1020.6 - -
21/12:30am 22.8 - - - - ESE 37 44 20 24 1021.2 - -
21/12:26am 22.8 - - - - ESE 35 - 19 - - 1021.3 -
21/12:00am 22.8 - - - - ESE 33 39 18 21 1021.4 - -

Other Formats:

Comma delimited format used in spreadsheet applications
http://www.bom.gov.au/fwo/IDQ60801/IDQ60801.94379.axf

JavaScript Object Notation format (JSON) in row-major order
http://www.bom.gov.au/fwo/IDQ60801/IDQ60801.94379.json